Time;durP1;ratioP1;P1;durP2;ratioP2;P2;SDS_P1;SDS_P2;PMS_P1;PMS_P2;Temp;Humidity;BMP_temperature;BMP_pressure;BME280_temperature;BME280_humidity;BME280_pressure;Samples;Min_cycle;Max_cycle;Signal;HPM_P1;HPM_P2
2021/08/17 00:00:58;;;;;;;14.93;6.03;;;;;;;;;;2097294;28;20167;-56
2021/08/17 00:01:58;;;;;;;12.82;5.55;;;;;;;;;;2096601;28;20170;-55
2021/08/17 00:02:58;;;;;;;15.60;5.18;;;;;;;;;;2097098;28;20178;-54
2021/08/17 00:03:58;;;;;;;14.10;5.82;;;;;;;;;;2095055;28;20662;-53
2021/08/17 00:04:58;;;;;;;14.35;4.93;;;;;;;;;;2097148;28;20166;-57
2021/08/17 00:06:01;;;;;;;11.30;5.07;;;;;;;;;;2094556;28;20220;-58
2021/08/17 00:07:02;;;;;;;13.45;5.25;;;;;;;;;;2097275;28;20554;-59
2021/08/17 00:08:03;;;;;;;13.23;5.63;;;;;;;;;;2090127;28;20189;-53
2021/08/17 00:09:03;;;;;;;14.10;5.03;;;;;;;;;;2083925;28;20795;-58
2021/08/17 00:10:04;;;;;;;7.20;4.15;;;;;;;;;;2091822;28;20163;-58
2021/08/17 00:11:04;;;;;;;13.73;5.28;;;;;;;;;;2096406;28;20174;-58
2021/08/17 00:12:04;;;;;;;15.20;5.80;;;;;;;;;;2098601;28;20178;-58
2021/08/17 00:13:04;;;;;;;15.10;5.85;;;;;;;;;;2096849;28;20514;-59
2021/08/17 00:14:05;;;;;;;11.38;5.15;;;;;;;;;;2099246;28;20828;-56
2021/08/17 00:15:05;;;;;;;11.07;4.82;;;;;;;;;;2098118;28;20198;-58
2021/08/17 00:16:06;;;;;;;14.45;5.45;;;;;;;;;;2099250;28;20171;-55
2021/08/17 00:17:09;;;;;;;7.70;4.82;;;;;;;;;;2098643;28;20638;-58
2021/08/17 00:18:10;;;;;;;11.95;4.55;;;;;;;;;;2098242;28;20190;-54
2021/08/17 00:19:10;;;;;;;8.73;4.78;;;;;;;;;;2096216;28;20198;-57
2021/08/17 00:20:11;;;;;;;15.52;4.65;;;;;;;;;;2090273;28;20188;-56
2021/08/17 00:21:12;;;;;;;10.88;5.40;;;;;;;;;;2092500;28;20903;-52
2021/08/17 00:22:13;;;;;;;12.63;5.28;;;;;;;;;;2091097;28;20535;-51
2021/08/17 00:23:14;;;;;;;15.57;5.35;;;;;;;;;;2096263;28;20235;-58
2021/08/17 00:24:14;;;;;;;13.35;5.50;;;;;;;;;;2098248;28;20220;-58
2021/08/17 00:25:14;;;;;;;11.27;5.53;;;;;;;;;;2089467;28;20183;-60
2021/08/17 00:26:14;;;;;;;13.25;5.68;;;;;;;;;;2082131;28;20235;-60
2021/08/17 00:27:15;;;;;;;15.05;5.30;;;;;;;;;;2088030;28;20260;-57
2021/08/17 00:28:15;;;;;;;12.18;4.93;;;;;;;;;;2098694;28;20741;-59
2021/08/17 00:29:15;;;;;;;14.63;5.60;;;;;;;;;;2099264;28;20187;-59
2021/08/17 00:30:15;;;;;;;11.82;5.78;;;;;;;;;;2099667;28;20765;-59
2021/08/17 00:31:16;;;;;;;11.70;4.68;;;;;;;;;;2100116;28;20175;-60
2021/08/17 00:32:16;;;;;;;13.48;5.10;;;;;;;;;;2099841;28;20178;-58
2021/08/17 00:33:16;;;;;;;17.17;5.47;;;;;;;;;;2100234;28;20318;-59
2021/08/17 00:34:16;;;;;;;13.25;5.55;;;;;;;;;;2100038;28;20198;-57
2021/08/17 00:35:17;;;;;;;16.50;5.47;;;;;;;;;;2099832;28;20674;-59
2021/08/17 00:36:17;;;;;;;13.70;5.60;;;;;;;;;;2099754;28;20167;-58
2021/08/17 00:37:18;;;;;;;14.85;5.88;;;;;;;;;;2090704;28;20635;-58
2021/08/17 00:38:18;;;;;;;21.30;5.85;;;;;;;;;;2090356;28;20573;-57
2021/08/17 00:39:18;;;;;;;10.13;5.07;;;;;;;;;;2090820;28;20180;-57
2021/08/17 00:40:18;;;;;;;16.83;5.15;;;;;;;;;;2090694;28;20179;-59
2021/08/17 00:41:19;;;;;;;9.30;4.97;;;;;;;;;;2099381;28;20221;-57
2021/08/17 00:42:19;;;;;;;13.30;5.47;;;;;;;;;;2099129;28;20174;-57
2021/08/17 00:43:20;;;;;;;11.00;5.00;;;;;;;;;;2099299;28;20567;-58
2021/08/17 00:44:25;;;;;;;15.32;5.07;;;;;;;;;;2099144;28;20182;-56
2021/08/17 00:45:26;;;;;;;11.13;5.38;;;;;;;;;;2099439;28;20572;-57
2021/08/17 00:46:26;;;;;;;15.23;3.85;;;;;;;;;;2099247;28;20174;-59
2021/08/17 00:47:26;;;;;;;13.80;4.80;;;;;;;;;;2090572;28;20586;-57
2021/08/17 00:48:26;;;;;;;12.00;4.35;;;;;;;;;;2089795;28;20682;-59
2021/08/17 00:49:27;;;;;;;8.65;4.50;;;;;;;;;;2090457;28;20183;-58
2021/08/17 00:50:29;;;;;;;21.60;5.32;;;;;;;;;;2091098;28;20191;-58
2021/08/17 00:51:29;;;;;;;14.57;5.13;;;;;;;;;;2099339;28;20612;-58
2021/08/17 00:52:30;;;;;;;9.88;4.60;;;;;;;;;;2099167;28;20185;-59
2021/08/17 00:53:31;;;;;;;12.35;4.43;;;;;;;;;;2099403;28;20212;-56
2021/08/17 00:54:34;;;;;;;10.73;4.88;;;;;;;;;;2090124;28;20607;-60
2021/08/17 00:55:34;;;;;;;10.85;4.43;;;;;;;;;;2090488;28;20167;-59
2021/08/17 00:56:35;;;;;;;11.45;5.05;;;;;;;;;;2093993;28;20569;-58
2021/08/17 00:57:36;;;;;;;11.30;4.57;;;;;;;;;;2099256;28;20714;-56
2021/08/17 00:58:37;;;;;;;10.65;4.88;;;;;;;;;;2097677;28;20260;-57
2021/08/17 00:59:38;;;;;;;14.98;4.82;;;;;;;;;;2097003;28;20194;-55
2021/08/17 01:00:38;;;;;;;8.13;4.20;;;;;;;;;;2096493;28;20170;-56
2021/08/17 01:01:39;;;;;;;13.73;5.07;;;;;;;;;;2098296;28;20261;-58
2021/08/17 01:02:40;;;;;;;11.05;4.38;;;;;;;;;;2098820;28;20206;-57
2021/08/17 01:03:40;;;;;;;8.82;4.10;;;;;;;;;;2097886;28;20525;-59
2021/08/17 01:04:41;;;;;;;11.65;4.80;;;;;;;;;;2096747;28;20180;-56
2021/08/17 01:05:41;;;;;;;10.20;4.25;;;;;;;;;;2091308;28;20199;-56
2021/08/17 01:06:42;;;;;;;7.45;4.18;;;;;;;;;;2097669;28;20174;-57
2021/08/17 01:07:42;;;;;;;7.55;4.20;;;;;;;;;;2099243;28;20261;-59
2021/08/17 01:08:42;;;;;;;10.43;4.50;;;;;;;;;;2090549;28;20213;-60
2021/08/17 01:09:43;;;;;;;10.18;4.30;;;;;;;;;;2089122;28;20242;-56
2021/08/17 01:10:44;;;;;;;12.65;4.07;;;;;;;;;;2097885;28;20224;-59
2021/08/17 01:11:46;;;;;;;9.73;4.07;;;;;;;;;;2091883;28;20163;-60
2021/08/17 01:12:46;;;;;;;13.48;4.93;;;;;;;;;;2089757;28;20193;-59
2021/08/17 01:13:48;;;;;;;9.52;4.32;;;;;;;;;;2089117;28;20183;-59
2021/08/17 01:14:48;;;;;;;7.40;4.22;;;;;;;;;;2087239;28;20180;-56
2021/08/17 01:15:49;;;;;;;9.98;4.63;;;;;;;;;;2097437;28;20182;-57
2021/08/17 01:16:49;;;;;;;12.40;4.63;;;;;;;;;;2098478;28;20171;-53
2021/08/17 01:17:50;;;;;;;8.15;4.25;;;;;;;;;;2098650;28;20199;-57
2021/08/17 01:18:50;;;;;;;13.70;5.18;;;;;;;;;;2098643;28;20201;-59
2021/08/17 01:19:51;;;;;;;13.15;4.57;;;;;;;;;;2101727;28;20669;-56
2021/08/17 01:20:53;;;;;;;9.05;4.50;;;;;;;;;;2100551;28;20191;-54
2021/08/17 01:21:54;;;;;;;11.65;4.88;;;;;;;;;;2098937;28;20173;-58
2021/08/17 01:22:54;;;;;;;7.93;4.38;;;;;;;;;;2098908;28;20171;-59
2021/08/17 01:23:55;;;;;;;14.00;4.60;;;;;;;;;;2097996;28;20175;-57
2021/08/17 01:24:55;;;;;;;8.02;4.22;;;;;;;;;;2088817;28;20236;-57
2021/08/17 01:25:55;;;;;;;9.55;4.25;;;;;;;;;;2089022;28;20627;-56
2021/08/17 01:26:56;;;;;;;14.23;5.53;;;;;;;;;;2097927;28;20180;-54
2021/08/17 01:27:56;;;;;;;12.85;4.65;;;;;;;;;;2088559;28;20167;-56
2021/08/17 01:28:57;;;;;;;10.65;4.40;;;;;;;;;;2088987;28;20218;-58
2021/08/17 01:29:58;;;;;;;9.30;4.00;;;;;;;;;;2098201;28;20174;-56
2021/08/17 01:30:59;;;;;;;10.02;3.25;;;;;;;;;;2096291;28;20183;-54
2021/08/17 01:31:59;;;;;;;10.27;4.53;;;;;;;;;;2093290;28;20193;-56
2021/08/17 01:33:00;;;;;;;8.00;4.05;;;;;;;;;;2090922;28;20655;-53
2021/08/17 01:34:00;;;;;;;10.77;4.43;;;;;;;;;;2098253;28;20665;-56
2021/08/17 01:35:00;;;;;;;11.20;4.50;;;;;;;;;;2096957;28;20680;-54
2021/08/17 01:36:01;;;;;;;8.40;4.47;;;;;;;;;;2098082;28;20643;-58
2021/08/17 01:37:01;;;;;;;6.15;4.45;;;;;;;;;;2097741;28;20184;-58
2021/08/17 01:38:02;;;;;;;10.02;4.50;;;;;;;;;;2097869;28;20194;-55
2021/08/17 01:39:03;;;;;;;10.68;4.47;;;;;;;;;;2102522;28;20186;-57
2021/08/17 01:40:05;;;;;;;15.88;4.75;;;;;;;;;;2101880;28;20249;-57
2021/08/17 01:41:05;;;;;;;12.27;4.25;;;;;;;;;;2095512;28;20171;-59
2021/08/17 01:42:05;;;;;;;14.40;4.22;;;;;;;;;;2097794;28;20179;-60
2021/08/17 01:43:05;;;;;;;9.35;4.53;;;;;;;;;;2097131;28;20198;-56
2021/08/17 01:44:07;;;;;;;13.48;4.97;;;;;;;;;;2097745;28;20211;-58
2021/08/17 01:45:08;;;;;;;12.63;4.30;;;;;;;;;;2103360;28;20177;-54
2021/08/17 01:46:10;;;;;;;11.52;4.93;;;;;;;;;;2101054;28;20654;-59
2021/08/17 01:47:10;;;;;;;9.52;3.97;;;;;;;;;;2089218;28;20596;-57
2021/08/17 01:48:12;;;;;;;15.88;5.25;;;;;;;;;;2088705;28;20194;-58
2021/08/17 01:49:12;;;;;;;9.98;4.57;;;;;;;;;;2097383;28;20547;-54
2021/08/17 01:50:13;;;;;;;5.55;4.07;;;;;;;;;;2097515;28;20199;-59
2021/08/17 01:51:14;;;;;;;10.48;4.03;;;;;;;;;;2097310;28;20177;-57
2021/08/17 01:52:14;;;;;;;7.00;3.70;;;;;;;;;;2098982;28;20178;-59
2021/08/17 01:53:14;;;;;;;11.02;4.50;;;;;;;;;;2091241;28;20532;-57
2021/08/17 01:54:14;;;;;;;7.78;4.43;;;;;;;;;;2098298;28;20185;-55
2021/08/17 01:55:15;;;;;;;14.25;4.60;;;;;;;;;;2091442;28;20175;-57
2021/08/17 01:56:15;;;;;;;9.10;4.88;;;;;;;;;;2092483;28;20170;-53
2021/08/17 01:57:16;;;;;;;11.45;4.20;;;;;;;;;;2098638;28;20273;-57
2021/08/17 01:58:17;;;;;;;12.38;4.65;;;;;;;;;;2098673;28;20229;-56
2021/08/17 01:59:22;;;;;;;9.48;4.03;;;;;;;;;;2084809;28;20203;-54
2021/08/17 02:00:22;;;;;;;6.50;4.30;;;;;;;;;;2089251;28;20651;-58
2021/08/17 02:01:22;;;;;;;7.43;4.22;;;;;;;;;;2081057;28;20251;-51
2021/08/17 02:02:22;;;;;;;13.65;4.70;;;;;;;;;;2081564;28;20335;-54
2021/08/17 02:03:23;;;;;;;7.82;4.38;;;;;;;;;;2089287;28;20168;-57
2021/08/17 02:04:23;;;;;;;8.20;4.05;;;;;;;;;;2081150;28;20172;-54
2021/08/17 02:05:24;;;;;;;14.25;4.57;;;;;;;;;;2083713;28;20172;-52
2021/08/17 02:06:25;;;;;;;16.65;4.47;;;;;;;;;;2089569;28;20655;-54
2021/08/17 02:07:25;;;;;;;12.82;4.50;;;;;;;;;;2090015;28;20171;-54
2021/08/17 02:08:25;;;;;;;10.23;4.65;;;;;;;;;;2091580;28;20222;-53
2021/08/17 02:09:26;;;;;;;12.55;4.05;;;;;;;;;;2094321;28;20163;-55
2021/08/17 02:10:26;;;;;;;7.70;4.22;;;;;;;;;;2090568;28;20171;-52
2021/08/17 02:11:27;;;;;;;10.95;4.35;;;;;;;;;;2081994;28;20171;-54
2021/08/17 02:12:27;;;;;;;13.05;4.88;;;;;;;;;;2073647;28;20550;-54
2021/08/17 02:13:29;;;;;;;13.55;4.50;;;;;;;;;;2081125;28;20161;-56
2021/08/17 02:14:29;;;;;;;9.77;3.80;;;;;;;;;;2065895;28;20194;-56
2021/08/17 02:15:29;;;;;;;8.23;4.15;;;;;;;;;;2073953;28;20181;-56
2021/08/17 02:16:30;;;;;;;9.18;4.78;;;;;;;;;;2079793;28;20187;-52
2021/08/17 02:17:30;;;;;;;9.90;4.10;;;;;;;;;;2082069;28;20568;-52
2021/08/17 02:18:31;;;;;;;11.70;4.32;;;;;;;;;;2090670;28;20809;-56
2021/08/17 02:19:31;;;;;;;10.90;3.95;;;;;;;;;;2083757;28;20226;-53
2021/08/17 02:20:32;;;;;;;9.07;4.55;;;;;;;;;;2091376;28;20222;-55
2021/08/17 02:21:32;;;;;;;7.90;3.55;;;;;;;;;;2091051;28;20274;-53
2021/08/17 02:22:32;;;;;;;8.00;3.72;;;;;;;;;;2091040;28;20199;-54
2021/08/17 02:23:33;;;;;;;8.63;3.97;;;;;;;;;;2081913;28;20182;-54
2021/08/17 02:24:33;;;;;;;8.52;4.20;;;;;;;;;;2081557;28;20165;-52
2021/08/17 02:25:34;;;;;;;12.35;3.88;;;;;;;;;;2082855;28;20547;-52
2021/08/17 02:26:34;;;;;;;8.23;3.63;;;;;;;;;;2074084;28;20177;-54
2021/08/17 02:27:35;;;;;;;9.13;3.97;;;;;;;;;;2074080;28;20256;-52
2021/08/17 02:28:36;;;;;;;8.00;4.28;;;;;;;;;;2082500;28;20215;-53
2021/08/17 02:29:36;;;;;;;7.70;4.18;;;;;;;;;;2083375;28;20156;-56
2021/08/17 02:30:36;;;;;;;14.98;4.80;;;;;;;;;;2081240;28;20177;-55
2021/08/17 02:31:37;;;;;;;17.00;5.05;;;;;;;;;;2081883;28;20164;-55
2021/08/17 02:32:37;;;;;;;10.55;4.40;;;;;;;;;;2082068;28;20239;-54
2021/08/17 02:33:37;;;;;;;11.15;4.28;;;;;;;;;;2085261;28;20772;-54
2021/08/17 02:34:37;;;;;;;9.95;3.92;;;;;;;;;;2084955;28;20183;-52
2021/08/17 02:35:38;;;;;;;10.77;3.80;;;;;;;;;;2081470;28;20195;-56
2021/08/17 02:36:38;;;;;;;10.82;4.15;;;;;;;;;;2081281;28;20214;-56
2021/08/17 02:37:39;;;;;;;13.38;3.92;;;;;;;;;;2090204;28;20167;-55
2021/08/17 02:38:39;;;;;;;10.27;4.55;;;;;;;;;;2080798;28;20251;-53
2021/08/17 02:39:39;;;;;;;7.00;3.88;;;;;;;;;;2081705;28;20235;-52
2021/08/17 02:40:40;;;;;;;5.43;3.78;;;;;;;;;;2089324;28;20199;-56
2021/08/17 02:41:40;;;;;;;9.30;4.18;;;;;;;;;;2080986;28;20227;-53
2021/08/17 02:42:41;;;;;;;7.32;3.95;;;;;;;;;;2080667;28;20235;-53
2021/08/17 02:43:41;;;;;;;9.25;4.10;;;;;;;;;;2089291;28;20542;-53
2021/08/17 02:44:42;;;;;;;8.23;3.70;;;;;;;;;;2073479;28;20200;-55
2021/08/17 02:45:42;;;;;;;10.63;4.20;;;;;;;;;;2073507;28;20197;-56
2021/08/17 02:46:43;;;;;;;9.25;3.75;;;;;;;;;;2082504;28;20168;-55
2021/08/17 02:47:43;;;;;;;10.57;4.43;;;;;;;;;;2083131;28;20180;-55
2021/08/17 02:48:43;;;;;;;10.18;4.32;;;;;;;;;;2089503;28;20231;-52
2021/08/17 02:49:43;;;;;;;10.85;4.00;;;;;;;;;;2083242;28;20214;-52
2021/08/17 02:50:44;;;;;;;9.55;3.42;;;;;;;;;;2090458;28;20176;-54
2021/08/17 02:51:44;;;;;;;8.88;4.32;;;;;;;;;;2089950;28;20508;-54
2021/08/17 02:52:44;;;;;;;9.55;3.40;;;;;;;;;;2082505;28;20577;-53
2021/08/17 02:53:45;;;;;;;14.48;4.35;;;;;;;;;;2082478;28;20183;-55
2021/08/17 02:54:45;;;;;;;12.30;4.55;;;;;;;;;;2082467;28;20180;-55
2021/08/17 02:55:45;;;;;;;12.90;4.70;;;;;;;;;;2082532;28;20198;-57
2021/08/17 02:56:46;;;;;;;8.35;3.78;;;;;;;;;;2065681;28;20256;-54
2021/08/17 02:57:50;;;;;;;9.60;4.63;;;;;;;;;;2065532;28;20268;-54
2021/08/17 02:58:50;;;;;;;10.00;4.15;;;;;;;;;;2081994;28;20715;-55
2021/08/17 02:59:50;;;;;;;10.10;3.80;;;;;;;;;;2089261;28;20199;-56
2021/08/17 03:00:51;;;;;;;13.68;4.10;;;;;;;;;;2085947;28;20551;-56
2021/08/17 03:01:51;;;;;;;6.63;3.58;;;;;;;;;;2084357;28;20293;-53
2021/08/17 03:02:51;;;;;;;10.80;4.70;;;;;;;;;;2085429;28;20185;-56
2021/08/17 03:03:51;;;;;;;9.25;4.15;;;;;;;;;;2086511;28;20168;-52
2021/08/17 03:04:52;;;;;;;10.80;4.25;;;;;;;;;;2086537;28;20225;-53
2021/08/17 03:05:52;;;;;;;8.18;3.63;;;;;;;;;;2086546;28;20655;-53
2021/08/17 03:06:52;;;;;;;9.35;5.00;;;;;;;;;;2086388;28;20261;-55
2021/08/17 03:07:54;;;;;;;15.65;4.88;;;;;;;;;;2084739;28;20636;-56
2021/08/17 03:08:54;;;;;;;7.22;4.25;;;;;;;;;;2085099;28;20214;-54
2021/08/17 03:09:54;;;;;;;7.25;3.42;;;;;;;;;;2091646;28;20195;-54
2021/08/17 03:10:54;;;;;;;9.63;4.25;;;;;;;;;;2086535;28;20222;-54
2021/08/17 03:11:55;;;;;;;7.07;4.07;;;;;;;;;;2085797;28;20168;-54
2021/08/17 03:12:55;;;;;;;10.65;4.10;;;;;;;;;;2093450;28;20213;-54
2021/08/17 03:13:57;;;;;;;9.95;4.28;;;;;;;;;;2087425;28;20215;-52
2021/08/17 03:14:57;;;;;;;13.45;4.25;;;;;;;;;;2087054;28;20164;-54
2021/08/17 03:15:57;;;;;;;9.07;4.32;;;;;;;;;;2084244;28;20188;-52
2021/08/17 03:16:58;;;;;;;8.07;4.20;;;;;;;;;;2087047;28;20173;-51
2021/08/17 03:17:59;;;;;;;6.05;3.80;;;;;;;;;;2095676;28;20227;-53
2021/08/17 03:19:00;;;;;;;13.60;4.45;;;;;;;;;;2087509;28;20696;-53
2021/08/17 03:20:00;;;;;;;6.68;3.50;;;;;;;;;;2075715;28;20176;-53
2021/08/17 03:21:01;;;;;;;6.95;3.55;;;;;;;;;;2079520;28;20191;-53
2021/08/17 03:22:01;;;;;;;10.93;4.18;;;;;;;;;;2087594;28;20192;-54
2021/08/17 03:23:02;;;;;;;7.88;4.13;;;;;;;;;;2088244;28;20235;-54
2021/08/17 03:24:02;;;;;;;11.48;4.40;;;;;;;;;;2087276;28;20196;-53
2021/08/17 03:25:06;;;;;;;8.50;3.63;;;;;;;;;;2086146;28;20179;-53
2021/08/17 03:26:07;;;;;;;9.57;3.85;;;;;;;;;;2088589;28;20184;-55
2021/08/17 03:27:07;;;;;;;9.60;3.85;;;;;;;;;;2094708;28;20187;-53
2021/08/17 03:28:07;;;;;;;7.15;3.65;;;;;;;;;;2091936;28;20198;-64
2021/08/17 03:29:08;;;;;;;10.35;4.03;;;;;;;;;;2092114;28;20223;-55
2021/08/17 03:30:09;;;;;;;9.43;3.60;;;;;;;;;;2088900;28;20196;-56
2021/08/17 03:31:10;;;;;;;9.77;4.60;;;;;;;;;;2091451;28;20168;-58
2021/08/17 03:32:10;;;;;;;4.60;3.67;;;;;;;;;;2092063;28;20167;-58
2021/08/17 03:33:10;;;;;;;7.28;3.40;;;;;;;;;;2093433;28;20214;-56
2021/08/17 03:34:10;;;;;;;10.85;3.78;;;;;;;;;;2088582;28;20662;-57
2021/08/17 03:35:11;;;;;;;7.03;3.63;;;;;;;;;;2067712;28;20166;-57
2021/08/17 03:36:11;;;;;;;11.23;3.55;;;;;;;;;;2073377;28;20181;-56
2021/08/17 03:37:12;;;;;;;9.73;3.88;;;;;;;;;;2090950;28;20239;-57
2021/08/17 03:38:12;;;;;;;7.97;4.35;;;;;;;;;;2096474;28;20216;-56
2021/08/17 03:39:12;;;;;;;14.35;4.07;;;;;;;;;;2095116;28;20195;-53
2021/08/17 03:40:14;;;;;;;7.65;3.97;;;;;;;;;;2095190;28;20179;-57
2021/08/17 03:41:14;;;;;;;10.27;4.03;;;;;;;;;;2092784;28;20164;-55
2021/08/17 03:42:15;;;;;;;13.88;3.55;;;;;;;;;;2092463;28;20183;-57
2021/08/17 03:43:15;;;;;;;10.52;4.13;;;;;;;;;;2092490;28;20646;-55
2021/08/17 03:44:15;;;;;;;9.10;3.60;;;;;;;;;;2092541;28;20572;-54
2021/08/17 03:45:17;;;;;;;7.20;3.90;;;;;;;;;;2092697;28;20199;-56
2021/08/17 03:46:21;;;;;;;5.50;3.78;;;;;;;;;;2093927;28;20167;-59
2021/08/17 03:47:21;;;;;;;10.23;4.25;;;;;;;;;;2094796;28;20657;-55
2021/08/17 03:48:21;;;;;;;5.70;3.42;;;;;;;;;;2093351;28;20635;-58
2021/08/17 03:49:21;;;;;;;5.78;3.60;;;;;;;;;;2085339;28;20168;-51
2021/08/17 03:50:22;;;;;;;8.68;4.30;;;;;;;;;;2092231;28;20632;-55
2021/08/17 03:51:22;;;;;;;9.57;3.50;;;;;;;;;;2093617;28;20190;-55
2021/08/17 03:52:22;;;;;;;4.88;3.45;;;;;;;;;;2085396;28;20738;-56
2021/08/17 03:53:22;;;;;;;13.20;4.70;;;;;;;;;;2085046;28;20173;-52
2021/08/17 03:54:23;;;;;;;9.75;4.65;;;;;;;;;;2084296;28;20164;-52
2021/08/17 03:55:23;;;;;;;9.90;3.90;;;;;;;;;;2084076;28;20183;-53
2021/08/17 03:56:23;;;;;;;9.48;3.75;;;;;;;;;;2085724;28;20165;-54
2021/08/17 03:57:23;;;;;;;11.00;4.55;;;;;;;;;;2092839;28;20167;-54
2021/08/17 03:58:23;;;;;;;11.40;3.85;;;;;;;;;;2094172;28;20183;-55
2021/08/17 03:59:24;;;;;;;10.75;3.42;;;;;;;;;;2086780;28;20172;-57
2021/08/17 04:00:25;;;;;;;10.88;3.83;;;;;;;;;;2085246;28;20184;-52
2021/08/17 04:01:25;;;;;;;6.40;3.33;;;;;;;;;;2092664;28;20176;-55
2021/08/17 04:02:26;;;;;;;6.55;3.35;;;;;;;;;;2092994;28;20195;-55
2021/08/17 04:03:26;;;;;;;10.10;4.18;;;;;;;;;;2092018;28;20499;-56
2021/08/17 04:04:26;;;;;;;5.72;3.42;;;;;;;;;;2093068;28;20294;-55
2021/08/17 04:05:27;;;;;;;10.25;3.88;;;;;;;;;;2075492;28;20169;-57
2021/08/17 04:06:27;;;;;;;5.57;3.13;;;;;;;;;;2076332;28;20200;-54
2021/08/17 04:07:27;;;;;;;14.63;4.03;;;;;;;;;;2093881;28;20179;-56
2021/08/17 04:08:27;;;;;;;8.40;3.80;;;;;;;;;;2083922;28;20220;-53
2021/08/17 04:09:28;;;;;;;8.85;3.75;;;;;;;;;;2081464;28;20173;-53
2021/08/17 04:10:28;;;;;;;8.63;3.55;;;;;;;;;;2089062;28;20217;-57
2021/08/17 04:11:28;;;;;;;9.55;3.90;;;;;;;;;;2084465;28;20171;-52
2021/08/17 04:12:28;;;;;;;10.30;3.92;;;;;;;;;;2084911;28;20698;-54
2021/08/17 04:13:29;;;;;;;7.90;3.47;;;;;;;;;;2094162;28;20176;-53
2021/08/17 04:14:29;;;;;;;13.82;4.38;;;;;;;;;;2093896;28;20195;-55
2021/08/17 04:15:29;;;;;;;7.07;3.50;;;;;;;;;;2087474;28;20208;-57
2021/08/17 04:16:29;;;;;;;7.43;3.75;;;;;;;;;;2092603;28;20243;-57
2021/08/17 04:17:30;;;;;;;9.48;3.92;;;;;;;;;;2091932;28;20187;-57
2021/08/17 04:18:30;;;;;;;15.00;4.35;;;;;;;;;;2081506;28;20752;-56
2021/08/17 04:19:31;;;;;;;12.05;3.75;;;;;;;;;;2082168;28;20172;-56
2021/08/17 04:20:32;;;;;;;11.60;4.43;;;;;;;;;;2090665;28;20228;-56
2021/08/17 04:21:33;;;;;;;4.20;3.50;;;;;;;;;;2092487;28;20675;-54
2021/08/17 04:22:33;;;;;;;9.05;3.47;;;;;;;;;;2085567;28;20192;-55
2021/08/17 04:23:33;;;;;;;8.60;3.58;;;;;;;;;;2076330;28;20177;-54
2021/08/17 04:24:34;;;;;;;8.55;3.97;;;;;;;;;;2075837;28;20165;-55
2021/08/17 04:25:34;;;;;;;7.15;3.53;;;;;;;;;;2076474;28;20173;-53
2021/08/17 04:26:34;;;;;;;12.25;3.72;;;;;;;;;;2076375;28;20199;-55
2021/08/17 04:27:35;;;;;;;12.27;4.75;;;;;;;;;;2080912;28;20207;-53
2021/08/17 04:28:35;;;;;;;8.50;3.60;;;;;;;;;;2092251;28;20218;-54
2021/08/17 04:29:37;;;;;;;9.70;3.50;;;;;;;;;;2090556;28;20176;-56
2021/08/17 04:30:37;;;;;;;6.53;3.38;;;;;;;;;;2087357;28;20235;-53
2021/08/17 04:31:38;;;;;;;8.40;3.40;;;;;;;;;;2092661;28;20182;-54
2021/08/17 04:32:38;;;;;;;13.00;4.20;;;;;;;;;;2089599;28;20196;-53
2021/08/17 04:33:38;;;;;;;8.52;3.78;;;;;;;;;;2092038;28;20658;-52
2021/08/17 04:34:39;;;;;;;9.75;3.47;;;;;;;;;;2089479;28;20183;-54
2021/08/17 04:35:40;;;;;;;9.32;3.45;;;;;;;;;;2092924;28;20189;-55
2021/08/17 04:36:40;;;;;;;8.73;3.70;;;;;;;;;;2091173;28;20196;-56
2021/08/17 04:37:40;;;;;;;13.60;4.07;;;;;;;;;;2086531;28;20386;-53
2021/08/17 04:38:41;;;;;;;6.55;3.20;;;;;;;;;;2073870;28;20197;-53
2021/08/17 04:39:41;;;;;;;7.15;3.50;;;;;;;;;;2076039;28;20176;-57
2021/08/17 04:40:41;;;;;;;8.32;3.50;;;;;;;;;;2081995;28;20181;-54
2021/08/17 04:41:42;;;;;;;7.93;3.88;;;;;;;;;;2092611;28;20694;-54
2021/08/17 04:42:42;;;;;;;10.35;4.13;;;;;;;;;;2090628;28;20187;-54
2021/08/17 04:43:42;;;;;;;8.07;3.53;;;;;;;;;;2085629;28;20181;-54
2021/08/17 04:44:42;;;;;;;8.80;3.45;;;;;;;;;;2078661;28;20208;-52
2021/08/17 04:45:43;;;;;;;6.30;3.40;;;;;;;;;;2090121;28;20236;-52
2021/08/17 04:46:43;;;;;;;8.85;3.88;;;;;;;;;;2095894;28;20183;-53
2021/08/17 04:47:47;;;;;;;4.38;2.50;;;;;;;;;;2095480;28;20203;-52
2021/08/17 04:48:49;;;;;;;6.38;3.20;;;;;;;;;;2095388;28;20262;-52
2021/08/17 04:49:49;;;;;;;8.23;3.10;;;;;;;;;;2085362;28;20187;-52
2021/08/17 04:50:50;;;;;;;5.97;3.10;;;;;;;;;;2078889;28;20177;-52
2021/08/17 04:51:50;;;;;;;9.63;4.70;;;;;;;;;;2087024;28;20191;-51
2021/08/17 04:52:50;;;;;;;7.28;2.92;;;;;;;;;;2084027;28;20214;-51
2021/08/17 04:53:50;;;;;;;10.10;3.42;;;;;;;;;;2080046;28;20160;-52
2021/08/17 04:54:51;;;;;;;8.25;3.05;;;;;;;;;;2085245;28;20168;-54
2021/08/17 04:55:51;;;;;;;10.13;4.25;;;;;;;;;;2093339;28;20734;-55
2021/08/17 04:56:51;;;;;;;8.60;3.28;;;;;;;;;;2090280;28;20740;-53
2021/08/17 04:57:53;;;;;;;12.45;3.58;;;;;;;;;;2081742;28;20180;-54
2021/08/17 04:58:54;;;;;;;12.27;4.47;;;;;;;;;;2088469;28;20211;-51
2021/08/17 04:59:54;;;;;;;10.85;3.80;;;;;;;;;;2098011;28;20199;-51
2021/08/17 05:00:54;;;;;;;7.80;3.90;;;;;;;;;;2093016;28;20206;-51
2021/08/17 05:01:55;;;;;;;6.30;3.97;;;;;;;;;;2093390;28;20187;-51
2021/08/17 05:02:55;;;;;;;9.95;3.33;;;;;;;;;;2096486;28;20187;-51
2021/08/17 05:03:56;;;;;;;5.65;3.22;;;;;;;;;;2101830;28;20163;-52
2021/08/17 05:04:56;;;;;;;10.23;3.90;;;;;;;;;;2102720;28;20217;-51
2021/08/17 05:05:57;;;;;;;8.15;3.45;;;;;;;;;;2098938;28;20661;-52
2021/08/17 05:06:57;;;;;;;10.10;3.38;;;;;;;;;;2092993;28;20685;-51
2021/08/17 05:07:57;;;;;;;5.20;2.88;;;;;;;;;;2090789;28;20660;-51
2021/08/17 05:08:57;;;;;;;10.50;3.85;;;;;;;;;;2084549;28;20199;-53
2021/08/17 05:09:58;;;;;;;8.00;3.53;;;;;;;;;;2088669;28;20174;-60
2021/08/17 05:10:58;;;;;;;5.55;3.33;;;;;;;;;;2088655;28;20239;-54
2021/08/17 05:11:59;;;;;;;9.82;3.22;;;;;;;;;;2077980;28;20178;-52
2021/08/17 05:13:03;;;;;;;11.70;4.55;;;;;;;;;;2085594;28;20231;-52
2021/08/17 05:14:06;;;;;;;6.80;3.05;;;;;;;;;;2086936;28;20196;-53
2021/08/17 05:15:07;;;;;;;8.40;3.00;;;;;;;;;;2077835;28;20233;-54
2021/08/17 05:16:07;;;;;;;7.28;3.28;;;;;;;;;;2097860;28;20186;-54
2021/08/17 05:17:07;;;;;;;7.80;3.08;;;;;;;;;;2092736;28;20724;-54
2021/08/17 05:18:07;;;;;;;5.07;3.17;;;;;;;;;;2080145;28;20177;-54
2021/08/17 05:19:08;;;;;;;8.68;3.30;;;;;;;;;;2089232;28;20187;-52
2021/08/17 05:20:09;;;;;;;13.65;3.78;;;;;;;;;;2103212;28;20265;-52
2021/08/17 05:21:09;;;;;;;7.13;3.50;;;;;;;;;;2101932;28;20167;-52
2021/08/17 05:22:10;;;;;;;13.73;4.00;;;;;;;;;;2096430;28;20163;-54
2021/08/17 05:23:10;;;;;;;11.40;3.17;;;;;;;;;;2084426;28;20176;-53
2021/08/17 05:24:10;;;;;;;4.00;2.95;;;;;;;;;;2086338;28;20215;-52
2021/08/17 05:25:11;;;;;;;10.80;3.67;;;;;;;;;;2094783;28;20255;-57
2021/08/17 05:26:11;;;;;;;8.00;3.50;;;;;;;;;;2100958;28;20183;-52
2021/08/17 05:27:11;;;;;;;11.52;3.25;;;;;;;;;;2086275;28;20259;-52
2021/08/17 05:28:12;;;;;;;10.63;4.18;;;;;;;;;;2084579;28;20168;-52
2021/08/17 05:29:12;;;;;;;9.75;3.28;;;;;;;;;;2098356;28;20709;-52
2021/08/17 05:30:12;;;;;;;7.72;3.33;;;;;;;;;;2093719;28;20159;-50
2021/08/17 05:31:13;;;;;;;8.20;3.00;;;;;;;;;;2097016;28;20643;-54
2021/08/17 05:32:14;;;;;;;7.28;3.30;;;;;;;;;;2102353;28;20647;-54
2021/08/17 05:33:14;;;;;;;6.78;3.38;;;;;;;;;;2098108;28;20190;-55
2021/08/17 05:34:14;;;;;;;7.75;3.28;;;;;;;;;;2101566;28;20175;-56
2021/08/17 05:35:15;;;;;;;10.70;3.80;;;;;;;;;;2099996;28;20182;-51
2021/08/17 05:36:16;;;;;;;11.20;3.58;;;;;;;;;;2095756;28;20227;-52
2021/08/17 05:37:19;;;;;;;9.38;3.58;;;;;;;;;;2084119;28;20232;-53
2021/08/17 05:38:19;;;;;;;11.43;3.42;;;;;;;;;;2089658;28;20813;-54
2021/08/17 05:39:20;;;;;;;8.95;3.33;;;;;;;;;;2094113;28;20640;-55
2021/08/17 05:40:20;;;;;;;7.25;3.03;;;;;;;;;;2095987;28;20191;-54
2021/08/17 05:41:20;;;;;;;11.57;4.05;;;;;;;;;;2095355;28;20643;-55
2021/08/17 05:42:20;;;;;;;4.50;3.03;;;;;;;;;;2097953;28;20179;-54
2021/08/17 05:43:21;;;;;;;12.30;3.92;;;;;;;;;;2085773;28;20188;-53
2021/08/17 05:44:21;;;;;;;8.32;3.55;;;;;;;;;;2094712;28;20236;-52
2021/08/17 05:45:21;;;;;;;9.10;3.05;;;;;;;;;;2097145;28;20192;-52
2021/08/17 05:46:21;;;;;;;8.05;3.50;;;;;;;;;;2092441;28;20183;-51
2021/08/17 05:47:22;;;;;;;7.35;3.38;;;;;;;;;;2099043;28;20171;-54
2021/08/17 05:48:22;;;;;;;10.85;3.60;;;;;;;;;;2093057;28;20190;-54
2021/08/17 05:49:22;;;;;;;12.93;3.88;;;;;;;;;;2099442;28;20244;-53
2021/08/17 05:50:23;;;;;;;11.32;3.22;;;;;;;;;;2090591;28;20251;-56
2021/08/17 05:51:23;;;;;;;9.80;3.90;;;;;;;;;;2092644;28;20179;-54
2021/08/17 05:52:23;;;;;;;11.00;4.15;;;;;;;;;;2092723;28;20592;-55
2021/08/17 05:53:24;;;;;;;9.32;3.53;;;;;;;;;;2099711;28;20163;-51
2021/08/17 05:54:24;;;;;;;8.30;3.42;;;;;;;;;;2079002;28;20639;-54
2021/08/17 05:55:24;;;;;;;9.10;4.13;;;;;;;;;;2082524;28;20202;-54
2021/08/17 05:56:25;;;;;;;7.45;3.08;;;;;;;;;;2083202;28;20172;-51
2021/08/17 05:57:25;;;;;;;7.60;3.38;;;;;;;;;;2073405;28;20193;-56
2021/08/17 05:58:25;;;;;;;6.82;3.28;;;;;;;;;;2082781;28;20236;-56
2021/08/17 05:59:26;;;;;;;7.57;3.47;;;;;;;;;;2090476;28;20675;-54
2021/08/17 06:00:26;;;;;;;10.05;3.55;;;;;;;;;;2097809;28;20635;-54